sensor_id;sensor_type;location;lat;lon;timestamp;temperature;humidity
2757;DHT22;1386;50.862;6.494;2023-07-29T00:00:19;20.10;99.90
2757;DHT22;1386;50.862;6.494;2023-07-29T00:02:47;20.00;99.90
2757;DHT22;1386;50.862;6.494;2023-07-29T00:05:13;20.00;99.90
2757;DHT22;1386;50.862;6.494;2023-07-29T00:07:40;20.00;99.90
2757;DHT22;1386;50.862;6.494;2023-07-29T00:10:08;20.00;99.90
2757;DHT22;1386;50.862;6.494;2023-07-29T00:12:39;20.00;99.90
2757;DHT22;1386;50.862;6.494;2023-07-29T00:15:07;19.90;99.90
2757;DHT22;1386;50.862;6.494;2023-07-29T00:17:34;19.90;99.90
2757;DHT22;1386;50.862;6.494;2023-07-29T00:20:02;19.90;99.90
2757;DHT22;1386;50.862;6.494;2023-07-29T00:22:29;19.90;99.90
2757;DHT22;1386;50.862;6.494;2023-07-29T00:24:56;19.90;99.90
2757;DHT22;1386;50.862;6.494;2023-07-29T00:27:23;19.90;99.90
2757;DHT22;1386;50.862;6.494;2023-07-29T00:29:51;19.80;99.90
2757;DHT22;1386;50.862;6.494;2023-07-29T00:32:18;19.80;99.90
2757;DHT22;1386;50.862;6.494;2023-07-29T00:34:45;19.80;99.90
2757;DHT22;1386;50.862;6.494;2023-07-29T00:37:11;19.80;99.90
2757;DHT22;1386;50.862;6.494;2023-07-29T00:39:41;19.80;99.90
2757;DHT22;1386;50.862;6.494;2023-07-29T00:42:08;19.80;99.90
2757;DHT22;1386;50.862;6.494;2023-07-29T00:44:35;19.70;99.90
2757;DHT22;1386;50.862;6.494;2023-07-29T00:47:05;19.70;99.90
2757;DHT22;1386;50.862;6.494;2023-07-29T00:49:32;19.70;99.90
2757;DHT22;1386;50.862;6.494;2023-07-29T00:51:59;19.70;99.90
2757;DHT22;1386;50.862;6.494;2023-07-29T00:54:26;19.70;99.90
2757;DHT22;1386;50.862;6.494;2023-07-29T00:56:53;19.70;99.90
2757;DHT22;1386;50.862;6.494;2023-07-29T00:59:19;19.70;99.90
2757;DHT22;1386;50.862;6.494;2023-07-29T01:01:46;19.70;99.90
2757;DHT22;1386;50.862;6.494;2023-07-29T01:04:17;19.70;99.90
2757;DHT22;1386;50.862;6.494;2023-07-29T01:06:50;19.70;99.90
2757;DHT22;1386;50.862;6.494;2023-07-29T01:09:26;19.70;99.90
2757;DHT22;1386;50.862;6.494;2023-07-29T01:11:59;19.70;99.90
2757;DHT22;1386;50.862;6.494;2023-07-29T01:14:39;19.70;99.90
2757;DHT22;1386;50.862;6.494;2023-07-29T01:17:09;19.70;99.90
2757;DHT22;1386;50.862;6.494;2023-07-29T01:20:01;19.70;99.90
2757;DHT22;1386;50.862;6.494;2023-07-29T01:22:32;19.70;99.90
2757;DHT22;1386;50.862;6.494;2023-07-29T01:25:04;19.70;99.90
2757;DHT22;1386;50.862;6.494;2023-07-29T01:27:31;19.70;99.90
2757;DHT22;1386;50.862;6.494;2023-07-29T01:29:59;19.70;99.90
2757;DHT22;1386;50.862;6.494;2023-07-29T01:32:31;19.70;99.90
2757;DHT22;1386;50.862;6.494;2023-07-29T01:35:06;19.70;99.90
2757;DHT22;1386;50.862;6.494;2023-07-29T01:37:37;19.60;99.90
2757;DHT22;1386;50.862;6.494;2023-07-29T01:40:11;19.70;99.90
2757;DHT22;1386;50.862;6.494;2023-07-29T01:42:38;19.70;99.90
2757;DHT22;1386;50.862;6.494;2023-07-29T01:45:06;19.70;99.90
2757;DHT22;1386;50.862;6.494;2023-07-29T01:47:32;19.70;99.90
2757;DHT22;1386;50.862;6.494;2023-07-29T01:49:59;19.60;99.90
2757;DHT22;1386;50.862;6.494;2023-07-29T01:52:28;19.60;99.90
2757;DHT22;1386;50.862;6.494;2023-07-29T01:54:55;19.60;99.90
2757;DHT22;1386;50.862;6.494;2023-07-29T01:57:23;19.60;99.90
2757;DHT22;1386;50.862;6.494;2023-07-29T01:59:50;19.60;99.90
2757;DHT22;1386;50.862;6.494;2023-07-29T02:02:17;19.50;99.90
2757;DHT22;1386;50.862;6.494;2023-07-29T02:04:44;19.50;99.90
2757;DHT22;1386;50.862;6.494;2023-07-29T02:07:16;19.50;99.90
2757;DHT22;1386;50.862;6.494;2023-07-29T02:09:43;19.50;99.90
2757;DHT22;1386;50.862;6.494;2023-07-29T02:12:10;19.50;99.90
2757;DHT22;1386;50.862;6.494;2023-07-29T02:14:38;19.50;99.90
2757;DHT22;1386;50.862;6.494;2023-07-29T02:17:05;19.50;99.90
2757;DHT22;1386;50.862;6.494;2023-07-29T02:19:32;19.50;99.90
2757;DHT22;1386;50.862;6.494;2023-07-29T02:21:59;19.50;99.90
2757;DHT22;1386;50.862;6.494;2023-07-29T06:32:53;18.90;99.90
2757;DHT22;1386;50.862;6.494;2023-07-29T06:35:20;19.00;99.90
2757;DHT22;1386;50.862;6.494;2023-07-29T06:37:47;19.00;99.90
2757;DHT22;1386;50.862;6.494;2023-07-29T06:40:23;19.10;99.90
2757;DHT22;1386;50.862;6.494;2023-07-29T06:42:50;19.20;99.90
2757;DHT22;1386;50.862;6.494;2023-07-29T06:45:22;19.20;99.90
2757;DHT22;1386;50.862;6.494;2023-07-29T06:47:48;19.30;99.90
2757;DHT22;1386;50.862;6.494;2023-07-29T06:50:17;19.30;99.90
2757;DHT22;1386;50.862;6.494;2023-07-29T06:52:44;19.30;99.90
2757;DHT22;1386;50.862;6.494;2023-07-29T06:55:11;19.30;99.90
2757;DHT22;1386;50.862;6.494;2023-07-29T06:57:38;19.30;99.90
2757;DHT22;1386;50.862;6.494;2023-07-29T07:00:06;19.30;99.90
2757;DHT22;1386;50.862;6.494;2023-07-29T07:02:34;19.30;99.90
2757;DHT22;1386;50.862;6.494;2023-07-29T07:05:01;19.40;99.90
2757;DHT22;1386;50.862;6.494;2023-07-29T07:07:29;19.40;99.90
2757;DHT22;1386;50.862;6.494;2023-07-29T07:09:56;19.50;99.90
2757;DHT22;1386;50.862;6.494;2023-07-29T07:12:23;19.50;99.90
2757;DHT22;1386;50.862;6.494;2023-07-29T07:14:50;19.50;99.90
2757;DHT22;1386;50.862;6.494;2023-07-29T07:17:17;19.50;99.90
2757;DHT22;1386;50.862;6.494;2023-07-29T07:19:44;19.40;99.90
2757;DHT22;1386;50.862;6.494;2023-07-29T07:22:11;19.40;99.90
2757;DHT22;1386;50.862;6.494;2023-07-29T07:24:40;19.40;99.90
2757;DHT22;1386;50.862;6.494;2023-07-29T07:27:07;19.50;99.90
2757;DHT22;1386;50.862;6.494;2023-07-29T07:29:43;19.50;99.90
2757;DHT22;1386;50.862;6.494;2023-07-29T07:32:09;19.60;99.90
2757;DHT22;1386;50.862;6.494;2023-07-29T07:34:36;19.70;99.90
2757;DHT22;1386;50.862;6.494;2023-07-29T07:37:03;19.70;99.90
2757;DHT22;1386;50.862;6.494;2023-07-29T07:39:31;19.80;99.90
2757;DHT22;1386;50.862;6.494;2023-07-29T07:41:59;19.80;99.90
2757;DHT22;1386;50.862;6.494;2023-07-29T07:44:26;19.90;99.90
2757;DHT22;1386;50.862;6.494;2023-07-29T07:46:53;19.90;99.90
2757;DHT22;1386;50.862;6.494;2023-07-29T07:49:20;20.00;99.90
2757;DHT22;1386;50.862;6.494;2023-07-29T07:51:46;20.00;99.90
2757;DHT22;1386;50.862;6.494;2023-07-29T07:54:13;20.10;99.90
2757;DHT22;1386;50.862;6.494;2023-07-29T07:56:40;20.20;99.90
2757;DHT22;1386;50.862;6.494;2023-07-29T07:59:08;20.40;99.90
2757;DHT22;1386;50.862;6.494;2023-07-29T08:01:35;20.50;99.90
2757;DHT22;1386;50.862;6.494;2023-07-29T08:04:02;20.50;99.90
2757;DHT22;1386;50.862;6.494;2023-07-29T08:06:30;20.50;99.90
2757;DHT22;1386;50.862;6.494;2023-07-29T08:08:57;20.50;99.90
2757;DHT22;1386;50.862;6.494;2023-07-29T08:11:24;20.60;99.90
2757;DHT22;1386;50.862;6.494;2023-07-29T08:13:51;20.60;99.90
2757;DHT22;1386;50.862;6.494;2023-07-29T08:16:20;20.50;99.90
2757;DHT22;1386;50.862;6.494;2023-07-29T08:18:47;20.60;99.90
2757;DHT22;1386;50.862;6.494;2023-07-29T08:21:17;20.60;99.90
2757;DHT22;1386;50.862;6.494;2023-07-29T08:26:24;20.70;99.90
2757;DHT22;1386;50.862;6.494;2023-07-29T08:28:50;20.50;99.90
2757;DHT22;1386;50.862;6.494;2023-07-29T08:31:17;20.50;99.90
2757;DHT22;1386;50.862;6.494;2023-07-29T08:33:45;20.70;99.90
2757;DHT22;1386;50.862;6.494;2023-07-29T08:36:12;20.80;99.90
2757;DHT22;1386;50.862;6.494;2023-07-29T08:38:39;20.70;99.90
2757;DHT22;1386;50.862;6.494;2023-07-29T08:41:12;20.70;99.90
2757;DHT22;1386;50.862;6.494;2023-07-29T08:43:44;20.70;99.90
2757;DHT22;1386;50.862;6.494;2023-07-29T08:46:15;20.70;99.90
2757;DHT22;1386;50.862;6.494;2023-07-29T08:48:44;20.80;99.90
2757;DHT22;1386;50.862;6.494;2023-07-29T08:51:12;20.90;99.90
2757;DHT22;1386;50.862;6.494;2023-07-29T08:53:39;20.90;99.90
2757;DHT22;1386;50.862;6.494;2023-07-29T08:56:07;20.90;99.90
2757;DHT22;1386;50.862;6.494;2023-07-29T08:58:37;20.90;99.90
2757;DHT22;1386;50.862;6.494;2023-07-29T09:01:06;20.90;99.90
2757;DHT22;1386;50.862;6.494;2023-07-29T09:03:32;21.00;99.90
2757;DHT22;1386;50.862;6.494;2023-07-29T09:06:07;21.10;99.90
2757;DHT22;1386;50.862;6.494;2023-07-29T09:08:34;21.20;99.90
2757;DHT22;1386;50.862;6.494;2023-07-29T09:11:01;21.20;99.90
2757;DHT22;1386;50.862;6.494;2023-07-29T09:13:28;21.20;99.90
2757;DHT22;1386;50.862;6.494;2023-07-29T09:15:57;21.30;99.90
2757;DHT22;1386;50.862;6.494;2023-07-29T09:18:27;21.40;99.90
2757;DHT22;1386;50.862;6.494;2023-07-29T09:20:54;21.50;99.90
2757;DHT22;1386;50.862;6.494;2023-07-29T09:23:22;21.60;99.90
2757;DHT22;1386;50.862;6.494;2023-07-29T09:25:49;21.70;99.90
2757;DHT22;1386;50.862;6.494;2023-07-29T09:28:16;21.80;99.90
2757;DHT22;1386;50.862;6.494;2023-07-29T09:30:45;21.80;99.90
2757;DHT22;1386;50.862;6.494;2023-07-29T09:33:12;21.90;99.90
2757;DHT22;1386;50.862;6.494;2023-07-29T09:35:39;21.90;99.90
2757;DHT22;1386;50.862;6.494;2023-07-29T09:38:06;22.00;99.90
2757;DHT22;1386;50.862;6.494;2023-07-29T09:40:40;22.10;99.90
2757;DHT22;1386;50.862;6.494;2023-07-29T09:43:09;22.20;99.90
2757;DHT22;1386;50.862;6.494;2023-07-29T09:45:36;22.10;99.90
2757;DHT22;1386;50.862;6.494;2023-07-29T09:48:04;22.00;99.90
2757;DHT22;1386;50.862;6.494;2023-07-29T09:50:35;21.90;99.90
2757;DHT22;1386;50.862;6.494;2023-07-29T09:53:02;21.80;99.90
2757;DHT22;1386;50.862;6.494;2023-07-29T09:55:32;21.70;99.90
2757;DHT22;1386;50.862;6.494;2023-07-29T09:58:01;21.50;99.90
2757;DHT22;1386;50.862;6.494;2023-07-29T10:00:53;21.40;99.90
2757;DHT22;1386;50.862;6.494;2023-07-29T10:03:28;21.30;99.90
2757;DHT22;1386;50.862;6.494;2023-07-29T10:06:17;21.30;99.90
2757;DHT22;1386;50.862;6.494;2023-07-29T10:08:48;21.20;99.90
2757;DHT22;1386;50.862;6.494;2023-07-29T10:11:16;21.20;99.90
2757;DHT22;1386;50.862;6.494;2023-07-29T10:14:00;21.20;99.90
2757;DHT22;1386;50.862;6.494;2023-07-29T10:16:36;21.20;99.90
2757;DHT22;1386;50.862;6.494;2023-07-29T10:21:59;21.10;99.90
2757;DHT22;1386;50.862;6.494;2023-07-29T10:24:33;21.10;99.90
2757;DHT22;1386;50.862;6.494;2023-07-29T10:27:01;21.00;99.90
2757;DHT22;1386;50.862;6.494;2023-07-29T10:29:31;21.00;99.90
2757;DHT22;1386;50.862;6.494;2023-07-29T10:32:02;21.00;99.90
2757;DHT22;1386;50.862;6.494;2023-07-29T10:34:40;21.00;99.90
2757;DHT22;1386;50.862;6.494;2023-07-29T10:37:07;21.00;99.90
2757;DHT22;1386;50.862;6.494;2023-07-29T10:39:41;21.10;99.90
2757;DHT22;1386;50.862;6.494;2023-07-29T10:42:21;21.20;99.90
2757;DHT22;1386;50.862;6.494;2023-07-29T10:44:51;21.40;99.90
2757;DHT22;1386;50.862;6.494;2023-07-29T10:47:23;21.70;99.90
2757;DHT22;1386;50.862;6.494;2023-07-29T10:49:52;21.90;99.90
2757;DHT22;1386;50.862;6.494;2023-07-29T10:52:41;22.00;99.90
2757;DHT22;1386;50.862;6.494;2023-07-29T10:55:46;22.20;99.90
2757;DHT22;1386;50.862;6.494;2023-07-29T10:58:14;22.40;99.90
2757;DHT22;1386;50.862;6.494;2023-07-29T11:00:45;22.40;99.90
2757;DHT22;1386;50.862;6.494;2023-07-29T11:03:13;22.40;99.90
2757;DHT22;1386;50.862;6.494;2023-07-29T11:12:41;22.70;99.90
2757;DHT22;1386;50.862;6.494;2023-07-29T11:15:29;22.90;99.90
2757;DHT22;1386;50.862;6.494;2023-07-29T14:26:44;21.90;99.90
2757;DHT22;1386;50.862;6.494;2023-07-29T14:29:11;21.90;99.90
2757;DHT22;1386;50.862;6.494;2023-07-29T14:31:37;21.90;99.90
2757;DHT22;1386;50.862;6.494;2023-07-29T14:34:04;22.00;99.90
2757;DHT22;1386;50.862;6.494;2023-07-29T14:36:31;22.00;99.90
2757;DHT22;1386;50.862;6.494;2023-07-29T14:39:03;22.00;99.90
2757;DHT22;1386;50.862;6.494;2023-07-29T14:41:30;22.10;99.90
2757;DHT22;1386;50.862;6.494;2023-07-29T14:43:58;22.00;99.90
2757;DHT22;1386;50.862;6.494;2023-07-29T14:46:25;22.00;99.90
2757;DHT22;1386;50.862;6.494;2023-07-29T14:48:52;22.10;99.90
2757;DHT22;1386;50.862;6.494;2023-07-29T14:51:19;22.20;99.90
2757;DHT22;1386;50.862;6.494;2023-07-29T14:53:46;22.20;99.90
2757;DHT22;1386;50.862;6.494;2023-07-29T14:56:12;22.40;99.90
2757;DHT22;1386;50.862;6.494;2023-07-29T14:58:43;22.30;99.90
2757;DHT22;1386;50.862;6.494;2023-07-29T15:01:16;22.30;99.90
2757;DHT22;1386;50.862;6.494;2023-07-29T15:03:43;22.30;99.90
2757;DHT22;1386;50.862;6.494;2023-07-29T15:06:20;22.40;99.90
2757;DHT22;1386;50.862;6.494;2023-07-29T15:09:03;22.40;99.90
2757;DHT22;1386;50.862;6.494;2023-07-29T15:11:54;22.50;99.90
